header image
aktuelles Wetter

 Wetter METAR LOWG 240650Z 25002KT 5000 BR FEW007 SCT009 OVC020 M03/M04 Q1004 R17/29//95 NOSIG=

Willkommen arrow GSV Category 1 arrow Natur puuuur genießen
Natur puuuur genießen

 fl_dg.jpg - 16.97 Kb 

Fliegen, Relaxen, Wohlfühlen. Mit dem Segelflieger abheben und Natur pur genießen. Lautlos über das Land gleiten. Mit unseren modernen Segelflugzeugen ist dieses Erlebnis garantiert. 

 

<Previous   Next>
GSV-NEWSFLASH
Anfliegen2018

Unser Anfliegen am Sonntag dem 8.4.2018 fand bei herrlichem Frühlingswetter in LOKW statt.

Read more...
Privatpilotenausbildung in Graz

Surprised PPL-Kurse beginnen bei uns laufend! Nähere Informationen bei Stefan Berger-Goriupp Tel. 0664/3280296

geänderte Sprechfunkverfahren
Die ACG hat einige Anpassungen an der Phrasologie durchgeführt ...
Read more...
Bilder
GSV-LOKW_011.JPG
Wer ist Online
No Users Online